Time;durP1;ratioP1;P1;durP2;ratioP2;P2;SDS_P1;SDS_P2;PMS_P1;PMS_P2;Temp;Humidity;BMP_temperature;BMP_pressure;BME280_temperature;BME280_humidity;BME280_pressure;Samples;Min_cycle;Max_cycle;Signal;HPM_P1;HPM_P2
2022/10/25 00:02:04;;;;;;;3.85;1.20;;;;;;;19.47;58.39;101100.59;5054607;28;20372;-60
2022/10/25 00:04:29;;;;;;;2.83;0.80;;;;;;;19.51;58.36;101115.25;5062430;28;20461;-60
2022/10/25 00:06:54;;;;;;;3.13;1.23;;;;;;;19.52;58.10;101114.31;5047887;28;20392;-61
2022/10/25 00:09:20;;;;;;;4.33;1.10;;;;;;;19.48;58.35;101111.06;5042761;28;20258;-59
2022/10/25 00:11:45;;;;;;;3.07;0.80;;;;;;;19.49;58.23;101110.09;5044471;28;20261;-61
2022/10/25 00:14:15;;;;;;;4.07;1.08;;;;;;;19.50;58.11;101121.50;5042752;28;20296;-61
2022/10/25 00:16:40;;;;;;;3.15;0.90;;;;;;;19.44;58.12;101114.94;5056351;28;20123;-60
2022/10/25 00:19:06;;;;;;;3.30;1.10;;;;;;;19.50;58.37;101116.22;5046962;28;20107;-61
2022/10/25 00:21:31;;;;;;;3.33;0.95;;;;;;;19.44;58.41;101109.66;5061555;28;20048;-61
2022/10/25 00:23:56;;;;;;;3.80;0.95;;;;;;;19.48;58.55;101123.44;5042959;28;20029;-60
2022/10/25 00:26:22;;;;;;;2.53;0.93;;;;;;;19.44;58.24;101111.44;5061845;28;20040;-60
2022/10/25 00:28:47;;;;;;;3.55;0.95;;;;;;;19.48;58.33;101123.44;5045692;28;20464;-61
2022/10/25 00:31:14;;;;;;;3.28;0.90;;;;;;;19.48;58.05;101129.56;5051797;28;20075;-59
2022/10/25 00:33:41;;;;;;;2.72;0.90;;;;;;;19.49;58.30;101127.78;5042137;28;20044;-59
2022/10/25 00:36:22;;;;;;;4.85;1.00;;;;;;;19.44;58.16;101116.72;5051608;28;20143;-60
2022/10/25 00:38:48;;;;;;;4.18;1.00;;;;;;;19.44;58.19;101122.88;5046046;28;20020;-60
2022/10/25 00:41:16;;;;;;;2.72;0.95;;;;;;;19.46;57.94;101123.56;5041974;28;20044;-59
2022/10/25 00:43:50;;;;;;;3.13;0.85;;;;;;;19.40;58.25;101119.63;5041204;28;20025;-60
2022/10/25 00:46:22;;;;;;;2.38;1.00;;;;;;;19.42;58.35;101124.78;5041654;28;20032;-61
2022/10/25 00:49:11;;;;;;;3.75;0.95;;;;;;;19.46;58.22;101126.22;5040440;28;20029;-60
2022/10/25 00:51:42;;;;;;;2.92;0.80;;;;;;;19.38;58.20;101124.19;5041534;28;20025;-60
2022/10/25 00:54:11;;;;;;;4.25;1.10;;;;;;;19.46;58.36;101128.03;5041875;28;20045;-60
2022/10/25 00:56:41;;;;;;;4.25;0.82;;;;;;;19.38;58.34;101118.09;5049740;28;20036;-60
2022/10/25 00:59:09;;;;;;;3.53;1.00;;;;;;;19.32;58.38;101113.28;5061393;28;20036;-60
2022/10/25 01:01:36;;;;;;;3.53;1.63;;;;;;;19.44;58.37;101122.88;5061114;28;20056;-60
2022/10/25 01:04:05;;;;;;;3.85;1.00;;;;;;;19.44;58.29;101132.56;5061043;28;20032;-60
2022/10/25 01:06:35;;;;;;;4.88;1.10;;;;;;;19.45;58.02;101134.28;5050344;28;20064;-60
2022/10/25 01:09:01;;;;;;;4.28;1.23;;;;;;;19.41;58.36;101128.41;5061633;28;20074;-58
2022/10/25 01:11:27;;;;;;;3.20;0.80;;;;;;;19.44;58.22;101135.22;5061227;28;20357;-61
2022/10/25 01:13:52;;;;;;;3.07;0.97;;;;;;;19.37;58.09;101130.44;5061178;28;20028;-59
2022/10/25 01:16:30;;;;;;;4.32;0.90;;;;;;;19.35;58.16;101137.66;5045912;28;20292;-60
2022/10/25 01:19:14;;;;;;;3.17;0.90;;;;;;;19.42;58.53;101145.91;5061247;28;20028;-59
2022/10/25 01:22:14;;;;;;;3.13;0.85;;;;;;;19.41;58.23;101146.91;5053496;28;20075;-60
2022/10/25 01:24:50;;;;;;;3.40;1.00;;;;;;;19.34;58.00;101132.50;5036673;28;20397;-60
2022/10/25 01:27:47;;;;;;;3.80;1.00;;;;;;;19.40;57.99;101151.31;5044740;28;20078;-60
2022/10/25 01:30:25;;;;;;;2.55;0.82;;;;;;;19.34;58.38;101138.66;5048791;28;20051;-60
2022/10/25 01:33:09;;;;;;;3.20;0.70;;;;;;;19.42;58.29;101153.03;5049250;28;20024;-61
2022/10/25 01:36:00;;;;;;;6.15;1.10;;;;;;;19.40;57.95;101161.06;5048742;28;20043;-60
2022/10/25 01:39:03;;;;;;;3.05;0.82;;;;;;;19.40;58.30;101153.97;5040897;28;20059;-60
2022/10/25 01:41:44;;;;;;;2.90;0.85;;;;;;;19.39;58.07;101164.66;5018592;28;20041;-60
2022/10/25 01:44:32;;;;;;;4.50;0.93;;;;;;;19.33;58.22;101147.53;5053546;28;20048;-61
2022/10/25 01:47:11;;;;;;;4.15;1.00;;;;;;;19.36;58.15;101157.03;5044812;28;20040;-62
2022/10/25 01:49:56;;;;;;;2.67;0.80;;;;;;;19.38;58.01;101163.00;5060846;28;20372;-60
2022/10/25 01:52:23;;;;;;;3.17;1.10;;;;;;;19.37;58.14;101163.97;5052164;28;20067;-60
2022/10/25 01:54:49;;;;;;;4.63;1.10;;;;;;;19.38;58.22;101161.19;5054046;28;20639;-61
2022/10/25 01:57:30;;;;;;;4.05;1.00;;;;;;;19.38;58.18;101163.00;5060307;28;20025;-60
2022/10/25 02:00:12;;;;;;;2.72;0.90;;;;;;;19.36;58.23;101163.13;5045084;28;20108;-60
2022/10/25 02:02:53;;;;;;;3.28;0.88;;;;;;;19.37;58.06;101158.69;5044545;28;20028;-60
2022/10/25 02:05:44;;;;;;;3.67;1.00;;;;;;;19.36;57.95;101162.31;5063165;28;20051;-61
2022/10/25 02:08:28;;;;;;;3.75;1.05;;;;;;;19.36;57.97;101173.69;5060503;28;20028;-60
2022/10/25 02:11:15;;;;;;;2.10;0.82;;;;;;;19.36;58.07;101172.88;5058564;28;20058;-61
2022/10/25 02:14:04;;;;;;;3.30;0.90;;;;;;;19.34;58.09;101174.78;5044888;28;20052;-59
2022/10/25 02:16:44;;;;;;;4.10;0.98;;;;;;;19.35;58.13;101179.13;5044932;28;20082;-60
2022/10/25 02:19:14;;;;;;;3.38;0.90;;;;;;;19.34;58.14;101180.06;5060027;28;20074;-60
2022/10/25 02:21:40;;;;;;;3.22;1.10;;;;;;;19.25;57.91;101167.59;5064316;28;21088;-60
2022/10/25 02:24:14;;;;;;;4.13;1.00;;;;;;;19.29;58.22;101180.44;5050452;28;20103;-62
2022/10/25 02:26:46;;;;;;;5.13;0.90;;;;;;;19.33;58.29;101181.88;5044871;28;20342;-64
2022/10/25 02:29:14;;;;;;;4.00;1.20;;;;;;;19.33;58.18;101179.25;5044211;28;20024;-59
2022/10/25 02:31:39;;;;;;;3.63;0.88;;;;;;;19.32;57.84;101174.91;5044334;28;20029;-60
2022/10/25 02:34:05;;;;;;;2.78;0.90;;;;;;;19.25;57.90;101165.81;5049352;28;20380;-60
2022/10/25 02:36:30;;;;;;;3.08;0.90;;;;;;;19.32;58.00;101171.44;5044300;28;20143;-60
2022/10/25 02:38:56;;;;;;;2.85;0.82;;;;;;;19.24;57.87;101164.13;5057942;28;20029;-60
2022/10/25 02:41:22;;;;;;;3.95;0.98;;;;;;;19.30;57.84;101182.13;5063750;28;20433;-60
2022/10/25 02:43:48;;;;;;;3.50;1.17;;;;;;;19.30;57.96;101186.59;5052625;28;20369;-60
2022/10/25 02:46:16;;;;;;;5.13;0.90;;;;;;;19.25;58.08;101173.75;5046218;28;20448;-60
2022/10/25 02:48:41;;;;;;;4.63;0.98;;;;;;;19.30;58.03;101183.94;5051778;28;20041;-60
2022/10/25 02:51:08;;;;;;;2.50;0.80;;;;;;;19.23;57.75;101186.22;5053930;28;20029;-61
2022/10/25 02:53:34;;;;;;;2.13;0.80;;;;;;;19.23;57.88;101175.66;5055474;28;20032;-60
2022/10/25 02:56:03;;;;;;;3.20;1.00;;;;;;;19.24;57.75;101182.63;5044075;28;20033;-62
2022/10/25 02:58:31;;;;;;;5.28;1.23;;;;;;;19.22;57.76;101181.91;5052735;28;20072;-61
2022/10/25 03:00:57;;;;;;;5.00;0.98;;;;;;;19.25;57.94;101189.59;5043306;28;20033;-61
2022/10/25 03:03:22;;;;;;;4.65;1.20;;;;;;;19.20;57.73;101187.31;5043645;28;20099;-59
2022/10/25 03:05:47;;;;;;;2.90;0.85;;;;;;;19.24;58.09;101190.53;5043695;28;20040;-60
2022/10/25 03:08:12;;;;;;;3.00;0.95;;;;;;;19.24;57.73;101195.00;5043768;28;20029;-59
2022/10/25 03:10:38;;;;;;;4.47;1.17;;;;;;;19.22;57.96;101189.84;5063575;28;20040;-60
2022/10/25 03:13:03;;;;;;;2.57;0.80;;;;;;;19.24;57.76;101205.56;5047812;28;20288;-60
2022/10/25 03:15:28;;;;;;;3.10;0.90;;;;;;;19.20;58.03;101192.59;5048872;28;20265;-61
2022/10/25 03:17:53;;;;;;;3.65;1.00;;;;;;;19.23;57.82;101194.13;5043753;28;20302;-60
2022/10/25 03:20:19;;;;;;;3.80;0.90;;;;;;;19.26;57.64;101208.91;5043576;28;20086;-62
2022/10/25 03:22:44;;;;;;;2.58;0.85;;;;;;;19.25;57.55;101210.72;5049412;28;20045;-63
2022/10/25 03:25:09;;;;;;;3.08;0.90;;;;;;;19.16;57.48;101200.91;5062376;28;20028;-61
2022/10/25 03:27:34;;;;;;;3.60;1.08;;;;;;;19.24;57.83;101218.78;5051091;28;20043;-59
2022/10/25 03:30:00;;;;;;;4.18;0.90;;;;;;;19.21;57.74;101210.13;5058821;28;20070;-60
2022/10/25 03:32:25;;;;;;;2.67;0.90;;;;;;;19.24;57.75;101222.25;5061791;28;20119;-62
2022/10/25 03:34:50;;;;;;;3.92;0.90;;;;;;;19.18;57.57;101220.97;5047653;28;20258;-60
2022/10/25 03:37:16;;;;;;;2.53;1.00;;;;;;;19.24;57.68;101232.81;5062580;28;20035;-60
2022/10/25 03:39:41;;;;;;;3.17;1.10;;;;;;;19.17;57.44;101224.56;5043292;28;20353;-62
2022/10/25 03:42:07;;;;;;;4.50;0.90;;;;;;;19.18;57.71;101228.03;5056023;28;20024;-60
2022/10/25 03:44:32;;;;;;;2.57;0.80;;;;;;;19.16;57.83;101229.97;5062690;28;20609;-61
2022/10/25 03:46:57;;;;;;;2.77;0.77;;;;;;;19.14;57.56;101235.38;5062427;28;20685;-59
2022/10/25 03:49:22;;;;;;;4.17;1.00;;;;;;;19.21;57.47;101251.56;5058156;28;20300;-60
2022/10/25 03:51:47;;;;;;;2.40;0.73;;;;;;;19.17;57.82;101245.69;5046671;28;20399;-59
2022/10/25 03:54:13;;;;;;;2.77;0.80;;;;;;;19.14;57.56;101239.81;5061407;28;20319;-59
2022/10/25 03:56:38;;;;;;;3.80;1.00;;;;;;;19.18;57.42;101247.38;5062387;28;20327;-61
2022/10/25 03:59:03;;;;;;;3.53;0.90;;;;;;;19.19;57.49;101254.31;5047853;28;20620;-59
2022/10/25 04:01:28;;;;;;;2.93;0.80;;;;;;;19.11;57.64;101243.53;5062383;28;20630;-60
2022/10/25 04:03:54;;;;;;;2.13;0.80;;;;;;;19.14;57.85;101255.66;5062141;28;20276;-59
2022/10/25 04:06:19;;;;;;;3.03;0.90;;;;;;;19.16;57.54;101254.56;5048387;28;20483;-59
2022/10/25 04:08:44;;;;;;;3.40;1.02;;;;;;;19.18;57.47;101265.88;5042822;28;20679;-60
2022/10/25 04:11:09;;;;;;;4.83;1.13;;;;;;;19.18;57.51;101265.88;5058671;28;20027;-59
2022/10/25 04:13:35;;;;;;;3.00;0.80;;;;;;;19.12;57.50;101255.78;5062434;28;20818;-61
2022/10/25 04:16:05;;;;;;;3.73;1.00;;;;;;;19.15;57.80;101257.31;5045540;28;20985;-61
2022/10/25 04:18:30;;;;;;;2.53;0.98;;;;;;;19.17;57.30;101266.00;5042015;28;20311;-61
2022/10/25 04:20:57;;;;;;;3.33;0.80;;;;;;;19.15;57.69;101255.53;5057454;28;20028;-60
2022/10/25 04:23:22;;;;;;;2.35;0.80;;;;;;;19.12;57.26;101253.16;5062074;28;20044;-61
2022/10/25 04:25:48;;;;;;;1.40;0.63;;;;;;;19.11;57.59;101253.25;5050922;28;20362;-62
2022/10/25 04:28:14;;;;;;;3.65;0.90;;;;;;;19.16;57.46;101274.88;5041967;28;20033;-62
2022/10/25 04:30:39;;;;;;;3.55;0.90;;;;;;;19.15;57.44;101268.75;5049166;28;20044;-61
2022/10/25 04:33:04;;;;;;;3.03;1.00;;;;;;;19.10;57.02;101259.50;5045491;28;20032;-60
2022/10/25 04:35:30;;;;;;;3.45;0.90;;;;;;;19.15;57.27;101271.41;5061051;28;20024;-59
2022/10/25 04:37:56;;;;;;;3.13;0.80;;;;;;;19.09;57.07;101266.59;5042300;28;20059;-60
2022/10/25 04:40:21;;;;;;;5.20;0.90;;;;;;;19.14;57.45;101275.00;5041951;28;20265;-60
2022/10/25 04:42:47;;;;;;;3.60;1.00;;;;;;;19.09;57.23;101265.72;5055518;28;20060;-60
2022/10/25 04:45:12;;;;;;;3.13;1.05;;;;;;;19.14;57.46;101274.16;5061210;28;20354;-60
2022/10/25 04:47:37;;;;;;;3.88;0.95;;;;;;;19.13;57.37;101275.13;5053634;28;20071;-60
2022/10/25 04:50:03;;;;;;;2.05;0.70;;;;;;;19.08;57.18;101267.53;5041924;28;20064;-60
2022/10/25 04:52:29;;;;;;;2.90;0.80;;;;;;;19.13;57.25;101273.28;5042026;28;20052;-62
2022/10/25 04:54:55;;;;;;;3.50;1.00;;;;;;;19.10;57.30;101273.53;5041364;28;20247;-61
2022/10/25 04:57:20;;;;;;;4.70;1.10;;;;;;;19.05;57.38;101264.31;5049403;28;20081;-59
2022/10/25 04:59:45;;;;;;;4.30;0.97;;;;;;;19.11;57.19;101277.03;5049078;28;20040;-60
2022/10/25 05:02:11;;;;;;;3.60;1.20;;;;;;;19.11;57.43;101282.31;5044424;28;20851;-62
2022/10/25 05:04:36;;;;;;;3.45;0.90;;;;;;;19.11;57.27;101279.69;5060693;28;20035;-61
2022/10/25 05:07:01;;;;;;;3.22;1.00;;;;;;;19.11;57.17;101285.78;5042989;28;20032;-59
2022/10/25 05:09:27;;;;;;;3.33;1.10;;;;;;;19.09;57.14;101290.38;5056566;28;20031;-60
2022/10/25 05:11:52;;;;;;;3.23;0.90;;;;;;;19.09;57.29;101281.59;5040304;28;20346;-62
2022/10/25 05:14:17;;;;;;;4.97;0.93;;;;;;;19.05;57.08;101278.34;5043390;28;20290;-61
2022/10/25 05:16:42;;;;;;;4.10;1.10;;;;;;;19.09;57.29;101290.38;5060984;28;20047;-59
2022/10/25 05:19:08;;;;;;;4.27;1.00;;;;;;;19.09;57.24;101300.94;5045674;28;20392;-60
2022/10/25 05:21:34;;;;;;;3.50;1.07;;;;;;;19.07;56.99;101305.47;5040912;28;20281;-62
2022/10/25 05:24:00;;;;;;;5.18;1.10;;;;;;;19.08;57.07;101307.16;5055985;28;20350;-60
2022/10/25 05:26:26;;;;;;;4.22;1.10;;;;;;;19.07;57.12;101305.47;5052600;28;20477;-61
2022/10/25 05:28:53;;;;;;;3.53;1.00;;;;;;;19.06;57.03;101309.09;5061024;28;20043;-59
2022/10/25 05:31:20;;;;;;;4.05;1.13;;;;;;;19.01;57.00;101301.53;5044406;28;20029;-59
2022/10/25 05:33:49;;;;;;;3.70;0.90;;;;;;;19.01;57.35;101306.81;5041032;28;20043;-60
2022/10/25 05:36:14;;;;;;;3.20;0.93;;;;;;;19.01;57.10;101305.97;5052678;28;20043;-62
2022/10/25 05:38:40;;;;;;;4.00;0.95;;;;;;;19.08;56.89;101311.63;5060908;28;20025;-60
2022/10/25 05:41:07;;;;;;;3.03;1.00;;;;;;;19.06;56.89;101308.25;5061026;28;20506;-60
2022/10/25 05:43:32;;;;;;;3.83;0.90;;;;;;;19.05;57.01;101314.50;5055753;28;20572;-62
2022/10/25 05:46:11;;;;;;;4.82;1.30;;;;;;;19.05;57.00;101312.69;5060536;28;20115;-60
2022/10/25 05:48:37;;;;;;;2.50;0.70;;;;;;;19.06;56.98;101314.38;5057936;28;20147;-61
2022/10/25 05:51:18;;;;;;;3.00;0.95;;;;;;;19.07;57.31;101316.03;5043297;28;20058;-61
2022/10/25 05:53:45;;;;;;;2.45;0.82;;;;;;;19.15;57.52;101326.88;5041100;28;20447;-61
2022/10/25 05:56:11;;;;;;;3.55;1.10;;;;;;;19.16;57.34;101333.81;5040866;28;20045;-62
2022/10/25 05:58:36;;;;;;;3.58;1.00;;;;;;;19.12;57.18;101332.41;5058198;28;20055;-60
2022/10/25 06:01:02;;;;;;;3.67;1.10;;;;;;;19.14;57.33;101324.34;5060606;28;20032;-60
2022/10/25 06:03:27;;;;;;;3.50;1.02;;;;;;;19.19;57.52;101338.88;5051684;28;20449;-60
2022/10/25 06:05:52;;;;;;;3.17;0.82;;;;;;;19.18;57.29;101345.13;5060652;28;20074;-62
2022/10/25 06:08:18;;;;;;;4.22;1.20;;;;;;;19.22;57.36;101348.38;5060623;28;20255;-62
2022/10/25 06:10:43;;;;;;;4.28;0.95;;;;;;;19.17;57.36;101342.63;5058504;28;20119;-64
2022/10/25 06:13:08;;;;;;;6.13;0.90;;;;;;;19.21;57.67;101350.16;5040573;28;20049;-62
2022/10/25 06:15:37;;;;;;;3.30;1.00;;;;;;;19.15;57.63;101339.22;5043313;28;20290;-61
2022/10/25 06:18:02;;;;;;;3.88;1.23;;;;;;;19.16;57.47;101341.75;5040713;28;20341;-61
2022/10/25 06:20:28;;;;;;;3.33;0.95;;;;;;;19.24;57.87;101359.66;5045439;28;20443;-60
2022/10/25 06:22:53;;;;;;;4.35;1.13;;;;;;;19.21;58.05;101358.09;5050810;28;20048;-60
2022/10/25 06:25:18;;;;;;;5.33;1.13;;;;;;;19.19;57.86;101362.66;5059403;28;20048;-61
2022/10/25 06:27:43;;;;;;;4.70;1.00;;;;;;;19.26;57.81;101370.94;5046486;28;20292;-61
2022/10/25 06:30:09;;;;;;;3.50;1.05;;;;;;;19.26;57.66;101380.69;5060593;28;20364;-63
2022/10/25 06:32:36;;;;;;;2.83;1.05;;;;;;;19.25;57.65;101371.06;5050502;28;20029;-60
2022/10/25 06:35:02;;;;;;;3.25;1.02;;;;;;;19.20;57.93;101369.63;5045269;28;20037;-62
2022/10/25 06:37:28;;;;;;;3.08;1.15;;;;;;;19.24;57.79;101372.88;5054511;28;20078;-61
2022/10/25 06:39:53;;;;;;;3.60;1.13;;;;;;;19.23;58.06;101373.81;5040126;28;20064;-59
2022/10/25 06:42:19;;;;;;;3.65;1.30;;;;;;;19.31;57.95;101383.78;5046093;28;20043;-60
2022/10/25 06:44:44;;;;;;;4.80;1.23;;;;;;;19.34;57.85;101386.19;5050438;28;20029;-61
2022/10/25 06:47:09;;;;;;;4.30;1.10;;;;;;;19.29;58.08;101375.16;5046383;28;20262;-60
2022/10/25 06:49:34;;;;;;;4.72;1.30;;;;;;;19.34;58.08;101389.72;5044089;28;20266;-61
2022/10/25 06:52:00;;;;;;;3.13;0.90;;;;;;;19.37;58.03;101399.19;5048952;28;20020;-60
2022/10/25 06:54:25;;;;;;;4.72;1.35;;;;;;;19.30;57.85;101385.59;5052639;28;20765;-60
2022/10/25 06:56:51;;;;;;;7.13;1.40;;;;;;;19.38;57.85;101398.22;5054006;28;20608;-60
2022/10/25 06:59:16;;;;;;;3.55;1.15;;;;;;;19.37;57.84;101397.38;5046477;28;20036;-61
2022/10/25 07:01:41;;;;;;;3.90;1.38;;;;;;;19.38;58.08;101404.34;5063748;28;20349;-61
2022/10/25 07:04:07;;;;;;;4.83;1.40;;;;;;;19.40;58.21;101409.50;5055763;28;20111;-61
2022/10/25 07:06:36;;;;;;;6.40;1.10;;;;;;;19.17;57.79;101369.88;5047872;28;20315;-60
2022/10/25 07:09:03;;;;;;;3.45;1.27;;;;;;;19.41;57.76;101416.50;5058066;28;20111;-59
2022/10/25 07:11:30;;;;;;;3.65;1.23;;;;;;;19.34;57.80;101400.28;5061436;28;20151;-61
2022/10/25 07:13:57;;;;;;;3.97;1.40;;;;;;;19.38;57.63;101417.56;5051575;28;20029;-60
2022/10/25 07:16:24;;;;;;;3.10;1.23;;;;;;;19.32;57.74;101410.09;5052314;28;20040;-67
2022/10/25 07:18:49;;;;;;;5.03;1.17;;;;;;;19.34;58.20;101417.91;5046373;28;20186;-70
2022/10/25 07:21:20;;;;;;;3.40;1.40;;;;;;;19.40;57.88;101415.63;5071543;28;20524;-71
2022/10/25 07:23:47;;;;;;;4.70;1.20;;;;;;;19.42;57.96;101417.31;5053900;28;20021;-68
2022/10/25 07:26:18;;;;;;;4.57;1.50;;;;;;;19.37;57.82;101417.69;5042605;28;20130;-65
2022/10/25 07:28:45;;;;;;;4.53;1.38;;;;;;;19.43;57.85;101433.06;5048000;28;20079;-73
2022/10/25 07:31:12;;;;;;;4.72;1.20;;;;;;;19.52;57.59;101429.72;5042554;28;20071;-74
2022/10/25 07:33:37;;;;;;;3.72;1.30;;;;;;;19.52;56.93;101428.88;5057109;28;20119;-74
2022/10/25 07:36:03;;;;;;;4.13;1.30;;;;;;;19.63;57.49;101443.88;5052567;28;20194;-72
2022/10/25 07:38:28;;;;;;;5.35;1.40;;;;;;;19.59;57.01;101435.34;5055716;28;20032;-72
2022/10/25 07:40:55;;;;;;;3.03;1.20;;;;;;;19.63;56.96;101438.59;5046456;28;20087;-66
2022/10/25 07:43:21;;;;;;;5.07;1.40;;;;;;;19.70;56.91;101453.88;5047157;28;20360;-75
2022/10/25 07:45:49;;;;;;;4.93;1.40;;;;;;;19.68;56.87;101441.75;5049808;28;20023;-67
2022/10/25 07:48:14;;;;;;;4.88;1.50;;;;;;;19.69;56.92;101446.06;5045359;28;20094;-68
2022/10/25 07:50:39;;;;;;;4.55;1.30;;;;;;;19.71;57.06;101449.41;5055986;28;20040;-71
2022/10/25 07:53:05;;;;;;;3.37;1.20;;;;;;;19.71;56.77;101442.34;5054422;28;20037;-71
2022/10/25 07:55:30;;;;;;;3.65;1.35;;;;;;;19.80;56.58;101454.00;5042347;28;20265;-71
2022/10/25 07:58:03;;;;;;;5.30;2.17;;;;;;;19.65;56.90;101423.47;5042646;28;20036;-71
2022/10/25 08:00:29;;;;;;;5.00;1.50;;;;;;;19.83;56.48;101456.41;5042552;28;20258;-72
2022/10/25 08:02:54;;;;;;;4.85;1.42;;;;;;;19.64;56.42;101412.03;5048843;28;20035;-72
2022/10/25 08:05:19;;;;;;;4.22;1.15;;;;;;;19.85;56.09;101459.81;5061869;28;20094;-69
2022/10/25 08:07:44;;;;;;;5.27;1.40;;;;;;;19.89;56.55;101471.81;5061839;28;20033;-66
2022/10/25 08:10:10;;;;;;;6.20;1.50;;;;;;;19.86;56.54;101473.84;5049863;28;20262;-71
2022/10/25 08:12:35;;;;;;;5.28;1.45;;;;;;;19.87;56.38;101463.16;5052367;28;20340;-78
2022/10/25 08:15:00;;;;;;;4.07;1.27;;;;;;;19.89;56.01;101461.22;5044621;28;20177;-74
2022/10/25 08:17:26;;;;;;;4.07;1.15;;;;;;;19.97;56.06;101473.03;5055507;28;20123;-73
2022/10/25 08:19:51;;;;;;;4.80;1.40;;;;;;;19.96;56.38;101468.69;5059879;28;20039;-75
2022/10/25 08:22:16;;;;;;;7.50;1.88;;;;;;;19.94;55.85;101458.22;5046484;28;20274;-73
2022/10/25 08:24:41;;;;;;;4.23;1.37;;;;;;;20.05;56.10;101470.59;5061250;28;20032;-68
2022/10/25 08:27:07;;;;;;;3.08;1.02;;;;;;;19.94;55.97;101459.06;5058998;28;20265;-69
2022/10/25 08:29:32;;;;;;;4.03;1.20;;;;;;;19.91;55.92;101463.75;5060596;28;20037;-76
2022/10/25 08:31:58;;;;;;;3.65;1.30;;;;;;;19.94;56.19;101461.69;5046052;28;21051;-72
2022/10/25 08:34:24;;;;;;;2.90;1.10;;;;;;;20.02;56.06;101484.06;5061153;28;20093;-74
2022/10/25 08:36:49;;;;;;;5.32;1.50;;;;;;;20.03;55.92;101473.38;5059574;28;20040;-74
2022/10/25 08:39:16;;;;;;;6.20;1.48;;;;;;;20.09;55.80;101479.97;5047578;28;20040;-72
2022/10/25 08:41:54;;;;;;;4.25;1.38;;;;;;;20.10;55.72;101477.19;5050439;28;20520;-70
2022/10/25 08:44:32;;;;;;;5.25;1.45;;;;;;;20.03;55.82;101469.88;5041405;28;20036;-69
2022/10/25 08:47:26;;;;;;;4.10;1.27;;;;;;;20.04;55.76;101474.19;5049178;28;20040;-75
2022/10/25 08:50:00;;;;;;;3.90;1.17;;;;;;;20.10;55.89;101482.47;5060949;28;20174;-73
2022/10/25 08:52:42;;;;;;;6.20;1.50;;;;;;;20.05;55.90;101478.53;5052015;28;20028;-72
2022/10/25 08:55:25;;;;;;;5.57;1.70;;;;;;;20.05;55.88;101479.38;5048883;28;20021;-72
2022/10/25 08:57:51;;;;;;;3.80;1.30;;;;;;;20.07;56.13;101488.00;5058166;28;20495;-72
2022/10/25 09:00:21;;;;;;;4.50;1.45;;;;;;;20.09;55.89;101488.75;5041397;28;20090;-75
2022/10/25 09:02:55;;;;;;;3.80;1.33;;;;;;;20.11;55.75;101494.75;5057385;28;20055;-73
2022/10/25 09:05:39;;;;;;;5.53;1.55;;;;;;;20.12;55.58;101498.25;5056707;28;20070;-66
2022/10/25 09:08:07;;;;;;;4.32;1.63;;;;;;;20.09;55.91;101498.47;5054950;28;20036;-65
2022/10/25 09:10:41;;;;;;;2.90;1.17;;;;;;;20.06;55.93;101499.59;5053865;28;20883;-65
2022/10/25 09:13:40;;;;;;;4.13;1.30;;;;;;;20.01;56.02;101507.06;5056182;28;20040;-61
2022/10/25 09:16:15;;;;;;;5.57;1.52;;;;;;;20.00;56.16;101505.34;5061187;28;20234;-61
2022/10/25 09:18:49;;;;;;;4.70;1.20;;;;;;;19.97;56.31;101502.94;5061182;28;20043;-61
2022/10/25 09:21:22;;;;;;;9.43;1.42;;;;;;;19.92;56.31;101502.47;5051793;28;20528;-61
2022/10/25 09:23:57;;;;;;;4.80;1.65;;;;;;;19.98;56.55;101517.00;5060724;28;20067;-60
2022/10/25 09:27:01;;;;;;;5.40;1.40;;;;;;;19.93;56.29;101514.72;5050594;28;20049;-64
2022/10/25 09:29:34;;;;;;;7.43;1.40;;;;;;;19.98;56.39;101528.44;5049371;28;20041;-61
2022/10/25 09:32:04;;;;;;;5.90;1.30;;;;;;;19.97;56.24;101523.28;5040014;28;20159;-61
2022/10/25 09:34:34;;;;;;;6.30;1.60;;;;;;;19.88;56.50;101511.59;5041169;28;20032;-62
2022/10/25 09:37:12;;;;;;;5.00;1.42;;;;;;;19.91;56.25;101527.22;5043947;28;20051;-63
2022/10/25 09:39:42;;;;;;;5.68;1.60;;;;;;;19.79;57.13;101507.88;5045245;28;20350;-73
2022/10/25 09:42:16;;;;;;;5.80;1.85;;;;;;;19.94;56.73;101521.72;5043925;28;20037;-71
2022/10/25 09:44:49;;;;;;;7.13;1.65;;;;;;;19.99;56.41;101516.06;5041649;28;20033;-70
2022/10/25 09:47:46;;;;;;;5.88;1.65;;;;;;;20.14;56.42;101529.88;5050723;28;20033;-70
2022/10/25 09:50:30;;;;;;;4.25;1.50;;;;;;;20.22;56.36;101535.38;5043977;28;20029;-71
2022/10/25 09:53:13;;;;;;;5.47;1.45;;;;;;;20.26;55.93;101537.69;5060183;28;20479;-72
2022/10/25 09:55:59;;;;;;;4.18;1.60;;;;;;;20.28;55.97;101529.63;5051008;28;20036;-71
2022/10/25 09:58:33;;;;;;;4.82;1.42;;;;;;;20.32;55.66;101541.66;5059076;28;20047;-66
2022/10/25 10:01:07;;;;;;;5.55;1.60;;;;;;;20.20;56.10;101532.03;5058329;28;20029;-64
2022/10/25 10:03:35;;;;;;;5.75;1.70;;;;;;;20.20;56.09;101545.28;5060673;28;20448;-62
2022/10/25 10:06:26;;;;;;;5.18;1.83;;;;;;;20.14;56.37;101543.97;5050260;28;20516;-70
2022/10/25 10:09:12;;;;;;;4.60;1.52;;;;;;;20.17;56.28;101550.81;5056671;28;20036;-73
2022/10/25 10:11:38;;;;;;;8.63;2.17;;;;;;;20.07;56.13;101529.53;5060074;28;20028;-70
2022/10/25 10:14:15;;;;;;;6.72;2.08;;;;;;;20.11;56.05;101541.56;5053385;28;20063;-70
2022/10/25 10:16:48;;;;;;;6.63;2.05;;;;;;;20.18;56.46;101557.78;5048322;28;20037;-71
2022/10/25 10:19:25;;;;;;;5.65;2.10;;;;;;;20.20;56.46;101550.56;5044066;28;20035;-71
2022/10/25 10:21:52;;;;;;;4.38;1.77;;;;;;;20.18;56.49;101545.38;5052418;28;20101;-69
2022/10/25 10:24:21;;;;;;;7.07;1.83;;;;;;;20.20;56.45;101550.56;5045673;28;20076;-70
2022/10/25 10:26:56;;;;;;;9.27;2.10;;;;;;;20.21;56.47;101550.44;5044204;28;20199;-69
2022/10/25 10:29:24;;;;;;;5.22;2.05;;;;;;;20.29;56.50;101568.38;5043494;28;20037;-72
2022/10/25 10:31:52;;;;;;;10.52;2.05;;;;;;;20.21;56.45;101550.44;5044178;28;20238;-69
2022/10/25 10:34:31;;;;;;;6.55;1.90;;;;;;;20.30;55.98;101564.78;5043830;28;20028;-67
2022/10/25 10:37:13;;;;;;;6.15;1.98;;;;;;;20.28;56.16;101564.88;5047493;28;20040;-70
2022/10/25 10:39:47;;;;;;;5.53;1.80;;;;;;;20.33;56.36;101568.97;5049792;28;20033;-70
2022/10/25 10:42:16;;;;;;;;;;;;;;;20.30;56.39;101562.13;5063280;28;20047;-70
2022/10/25 10:45:00;;;;;;;7.57;2.00;;;;;;;20.35;56.17;101569.69;5052071;28;19951;-72
2022/10/25 10:47:29;;;;;;;7.85;2.03;;;;;;;20.22;56.43;101554.78;5055243;28;20025;-64
2022/10/25 10:49:55;;;;;;;6.10;2.00;;;;;;;20.27;56.53;101573.78;5043695;28;20457;-64
2022/10/25 10:52:35;;;;;;;4.63;1.70;;;;;;;20.25;56.37;101564.25;5042968;28;20070;-61
2022/10/25 10:55:01;;;;;;;5.15;2.00;;;;;;;20.21;56.45;101562.84;5057065;28;20036;-62
2022/10/25 10:57:32;;;;;;;7.47;2.15;;;;;;;20.21;56.95;101568.13;5063845;28;20307;-63
2022/10/25 10:59:59;;;;;;;6.57;2.20;;;;;;;20.09;56.70;101549.63;5044883;28;20393;-62
2022/10/25 11:02:27;;;;;;;6.00;2.00;;;;;;;20.15;56.68;101564.16;5058930;28;20024;-62
2022/10/25 11:04:54;;;;;;;6.68;2.25;;;;;;;20.06;56.69;101549.84;5063213;28;20032;-62
2022/10/25 11:07:26;;;;;;;7.28;2.30;;;;;;;20.06;56.73;101551.63;5063604;28;20531;-63
2022/10/25 11:09:51;;;;;;;5.28;2.03;;;;;;;20.09;57.05;101561.97;5063355;28;20109;-61
2022/10/25 11:12:17;;;;;;;5.40;1.93;;;;;;;20.03;57.00;101560.69;5044061;28;20067;-62
2022/10/25 11:14:43;;;;;;;4.43;1.85;;;;;;;20.02;56.96;101558.16;5045825;28;20375;-63
2022/10/25 11:17:19;;;;;;;6.07;2.00;;;;;;;20.07;56.76;101569.22;5062890;28;20151;-61
2022/10/25 11:19:59;;;;;;;7.07;1.95;;;;;;;20.07;57.05;101562.09;5061606;28;20041;-62
2022/10/25 11:22:27;;;;;;;7.45;2.30;;;;;;;20.06;56.75;101564.88;5061140;28;20064;-63
2022/10/25 11:25:05;;;;;;;5.88;2.13;;;;;;;20.00;57.24;101549.50;5043122;28;20508;-62
2022/10/25 11:27:52;;;;;;;5.18;2.00;;;;;;;20.06;57.20;101563.09;5045739;28;20063;-61
2022/10/25 11:30:19;;;;;;;4.60;1.98;;;;;;;20.02;56.91;101558.97;5043441;28;20039;-61
2022/10/25 11:32:56;;;;;;;4.72;1.83;;;;;;;20.05;57.24;101561.38;5052029;28;20114;-61
2022/10/25 11:35:40;;;;;;;5.88;1.92;;;;;;;20.03;57.04;101568.63;5043152;28;20064;-60
2022/10/25 11:38:19;;;;;;;5.35;2.00;;;;;;;20.03;57.05;101567.78;5062799;28;20030;-62